Time;durP1;ratioP1;P1;durP2;ratioP2;P2;SDS_P1;SDS_P2;PMS_P1;PMS_P2;Temp;Humidity;BMP_temperature;BMP_pressure;BME280_temperature;BME280_humidity;BME280_pressure;Samples;Min_cycle;Max_cycle;Signal;HPM_P1;HPM_P2
2023/07/28 00:00:27;;;;;;;7.35;6.85;;;;;;;17.15;100.00;100394.44;5112107;28;20028;-67
2023/07/28 00:02:53;;;;;;;8.10;7.38;;;;;;;17.18;100.00;100400.38;5111654;28;20081;-67
2023/07/28 00:05:18;;;;;;;7.90;7.20;;;;;;;17.16;100.00;100393.44;5111859;28;20111;-66
2023/07/28 00:07:43;;;;;;;7.78;7.18;;;;;;;17.13;100.00;100381.16;5093994;28;20024;-66
2023/07/28 00:10:10;;;;;;;7.55;6.95;;;;;;;17.21;100.00;100385.78;5093192;28;20027;-66
2023/07/28 00:12:35;;;;;;;8.77;7.88;;;;;;;17.08;100.00;100374.53;5112069;28;20023;-66
2023/07/28 00:15:01;;;;;;;8.05;7.45;;;;;;;17.18;100.00;100388.78;5093626;28;20486;-66
2023/07/28 00:17:26;;;;;;;8.55;7.88;;;;;;;17.18;100.00;100386.09;5093843;28;20103;-66
2023/07/28 00:19:51;;;;;;;9.00;8.40;;;;;;;17.08;100.00;100372.69;5093418;28;20024;-66
2023/07/28 00:22:17;;;;;;;9.07;8.38;;;;;;;17.15;100.00;100392.59;5111957;28;20088;-66
2023/07/28 00:24:42;;;;;;;8.93;7.88;;;;;;;17.16;100.00;100382.69;5111703;28;20022;-66
2023/07/28 00:27:08;;;;;;;9.52;8.80;;;;;;;17.14;100.00;100376.63;5111825;28;20127;-66
2023/07/28 00:29:33;;;;;;;9.52;8.68;;;;;;;17.16;100.00;100385.38;5111851;28;20020;-66
2023/07/28 00:31:58;;;;;;;9.77;8.88;;;;;;;17.13;100.00;100377.63;5093440;28;20078;-66
2023/07/28 00:34:24;;;;;;;9.30;8.15;;;;;;;17.17;100.00;100381.69;5093445;28;20068;-66
2023/07/28 00:36:49;;;;;;;10.02;9.05;;;;;;;17.18;100.00;100386.94;5112083;28;20019;-66
2023/07/28 00:39:15;;;;;;;9.63;8.68;;;;;;;17.21;100.00;100385.78;5111489;28;20055;-66
2023/07/28 00:41:40;;;;;;;9.50;8.68;;;;;;;17.20;100.00;100384.91;5093274;28;20032;-66
2023/07/28 00:44:05;;;;;;;10.57;9.68;;;;;;;17.19;100.00;100387.78;5111677;28;20023;-66
2023/07/28 00:46:31;;;;;;;10.88;9.90;;;;;;;17.20;100.00;100384.06;5112196;28;20031;-66
2023/07/28 00:48:56;;;;;;;10.93;10.13;;;;;;;17.19;100.00;100391.28;5111444;28;20023;-66
2023/07/28 00:51:24;;;;;;;11.50;10.48;;;;;;;17.12;100.00;100371.41;5111494;28;20533;-66
2023/07/28 00:53:53;;;;;;;11.48;10.50;;;;;;;17.16;100.00;100380.00;5111435;28;20035;-66
2023/07/28 00:56:19;;;;;;;12.97;10.73;;;;;;;17.16;100.00;100375.47;5111828;28;20023;-66
2023/07/28 00:58:44;;;;;;;12.68;11.57;;;;;;;17.07;100.00;100360.25;5111582;28;20273;-66
2023/07/28 01:01:12;;;;;;;11.52;10.60;;;;;;;17.12;100.00;100371.41;5111261;28;20485;-66
2023/07/28 01:03:37;;;;;;;12.25;10.98;;;;;;;17.07;100.00;100362.09;5092926;28;20040;-66
2023/07/28 01:06:09;;;;;;;11.88;10.88;;;;;;;17.12;100.00;100370.53;5111655;28;20077;-66
2023/07/28 01:08:47;;;;;;;12.65;11.43;;;;;;;17.06;100.00;100363.97;5111105;28;20028;-66
2023/07/28 01:11:14;;;;;;;12.50;11.40;;;;;;;17.11;100.00;100380.44;5111287;28;20031;-66
2023/07/28 01:13:39;;;;;;;12.18;11.07;;;;;;;17.13;100.00;100380.31;5112139;28;20103;-66
2023/07/28 01:16:08;;;;;;;11.93;10.93;;;;;;;17.14;100.00;100382.00;5115050;28;20554;-66
2023/07/28 01:18:33;;;;;;;11.88;10.73;;;;;;;17.14;100.00;100382.00;5115098;28;20048;-66
2023/07/28 01:21:03;;;;;;;11.68;10.57;;;;;;;17.16;100.00;100388.06;5096391;28;20135;-66
2023/07/28 01:23:59;;;;;;;11.48;10.45;;;;;;;17.17;100.00;100385.22;5114644;28;20498;-66
2023/07/28 01:26:35;;;;;;;11.30;10.43;;;;;;;17.17;100.00;100401.34;5115392;28;20111;-66
2023/07/28 01:29:02;;;;;;;10.90;10.00;;;;;;;17.21;100.00;100383.94;5114871;28;20114;-66
2023/07/28 01:31:28;;;;;;;11.35;10.38;;;;;;;17.22;100.00;100384.78;5114803;28;20019;-67
2023/07/28 01:33:53;;;;;;;11.50;10.40;;;;;;;17.19;100.00;100393.16;5096603;28;20115;-66
2023/07/28 01:36:18;;;;;;;10.15;9.32;;;;;;;17.20;100.00;100390.28;5114894;28;20098;-66
2023/07/28 01:38:44;;;;;;;10.57;9.77;;;;;;;17.17;100.00;100385.22;5114635;28;20031;-66
2023/07/28 01:41:09;;;;;;;10.35;9.30;;;;;;;17.15;100.00;100389.91;5114541;28;20546;-67
2023/07/28 01:43:34;;;;;;;10.00;9.20;;;;;;;17.17;100.00;100389.75;5114907;28;20019;-66
2023/07/28 01:46:00;;;;;;;10.48;9.68;;;;;;;17.11;100.00;100382.28;5096596;28;20059;-66
2023/07/28 01:48:28;;;;;;;10.98;9.88;;;;;;;17.16;100.00;100386.22;5114752;28;20018;-66
2023/07/28 01:50:54;;;;;;;10.65;9.65;;;;;;;17.18;100.00;100386.94;5114461;28;20031;-66
2023/07/28 01:53:19;;;;;;;11.63;10.63;;;;;;;17.20;100.00;100389.44;5114170;28;20031;-67
2023/07/28 01:55:45;;;;;;;11.43;9.98;;;;;;;17.20;100.00;100401.03;5114868;28;20036;-66
2023/07/28 01:58:11;;;;;;;12.13;11.05;;;;;;;17.19;100.00;100393.16;5096057;28;20027;-66
2023/07/28 02:00:36;;;;;;;12.25;11.02;;;;;;;17.18;100.00;100388.78;5113469;28;20551;-66
2023/07/28 02:03:04;;;;;;;13.85;12.23;;;;;;;17.19;100.00;100390.47;5114428;28;20381;-66
2023/07/28 02:05:31;;;;;;;14.68;12.85;;;;;;;17.15;100.00;100387.22;5114263;28;20016;-66
2023/07/28 02:07:57;;;;;;;14.10;12.90;;;;;;;17.17;100.00;100390.59;5096104;28;20034;-66
2023/07/28 02:10:23;;;;;;;14.02;12.73;;;;;;;17.20;100.00;100390.28;5111589;28;20039;-66
2023/07/28 02:12:49;;;;;;;15.77;14.18;;;;;;;17.21;100.00;100389.31;5113103;28;20030;-66
2023/07/28 02:15:17;;;;;;;15.77;14.27;;;;;;;17.21;100.00;100392.00;5114008;28;20024;-66
2023/07/28 02:17:42;;;;;;;15.05;13.65;;;;;;;17.22;100.00;100390.16;5096191;28;20386;-66
2023/07/28 02:20:12;;;;;;;15.57;13.98;;;;;;;17.19;100.00;100379.72;5113544;28;20027;-66
2023/07/28 02:22:38;;;;;;;16.40;14.73;;;;;;;17.19;100.00;100387.78;5112369;28;20042;-66
2023/07/28 02:25:04;;;;;;;16.58;15.07;;;;;;;17.19;100.00;100387.78;5112490;28;20019;-66
2023/07/28 02:27:29;;;;;;;17.95;15.40;;;;;;;17.18;100.00;100397.69;5112905;28;20055;-66
2023/07/28 02:29:55;;;;;;;16.95;15.35;;;;;;;17.22;100.00;100387.47;5112631;28;20023;-66
2023/07/28 02:32:20;;;;;;;18.58;15.52;;;;;;;17.18;100.00;100386.94;5113997;28;20397;-66
2023/07/28 02:34:46;;;;;;;18.77;16.88;;;;;;;17.20;100.00;100400.19;5112139;28;20032;-66
2023/07/28 02:37:11;;;;;;;18.13;16.40;;;;;;;17.24;100.00;100393.53;5112756;28;20023;-66
2023/07/28 02:39:36;;;;;;;18.88;16.98;;;;;;;17.21;100.00;100391.16;5093789;28;20136;-66
2023/07/28 02:42:02;;;;;;;18.45;16.65;;;;;;;17.21;100.00;100399.22;5113756;28;20043;-66
2023/07/28 02:44:27;;;;;;;22.85;16.92;;;;;;;17.20;100.00;100394.81;5112491;28;20023;-66
2023/07/28 02:46:52;;;;;;;18.70;16.85;;;;;;;17.21;100.00;100393.84;5094858;28;20469;-66
2023/07/28 02:49:18;;;;;;;20.70;17.88;;;;;;;17.18;100.00;100389.63;5111211;28;20073;-66
2023/07/28 02:51:43;;;;;;;21.25;18.58;;;;;;;17.20;100.00;100405.56;5095297;28;20107;-66
2023/07/28 02:54:09;;;;;;;20.25;18.15;;;;;;;17.20;100.00;100409.09;5112119;28;20031;-66
2023/07/28 02:56:37;;;;;;;23.65;19.40;;;;;;;17.20;100.00;100411.78;5111881;28;20114;-66
2023/07/28 02:59:03;;;;;;;21.25;18.45;;;;;;;17.21;100.00;100415.34;5111657;28;20430;-66
2023/07/28 03:01:35;;;;;;;20.83;18.60;;;;;;;17.14;100.00;100400.81;5094325;28;20085;-66
2023/07/28 03:04:01;;;;;;;21.27;18.75;;;;;;;17.22;100.00;100414.34;5111962;28;20026;-66
2023/07/28 03:06:26;;;;;;;25.90;19.25;;;;;;;17.23;100.00;100407.97;5094953;28;20039;-66
2023/07/28 03:08:52;;;;;;;23.52;19.10;;;;;;;17.22;100.00;100411.66;5094155;28;20410;-66
2023/07/28 03:11:17;;;;;;;23.52;19.20;;;;;;;17.20;100.00;100408.25;5112343;28;20497;-66
2023/07/28 03:13:43;;;;;;;22.55;20.15;;;;;;;17.08;100.00;100383.44;5093913;28;20027;-66
2023/07/28 03:16:10;;;;;;;21.33;18.70;;;;;;;17.21;100.00;100408.13;5094200;28;20027;-66
2023/07/28 03:18:36;;;;;;;24.45;20.15;;;;;;;17.21;100.00;100410.81;5094032;28;20027;-66
2023/07/28 03:21:04;;;;;;;23.40;19.15;;;;;;;17.20;100.00;100410.94;5113077;28;20390;-66
2023/07/28 03:23:29;;;;;;;23.45;19.17;;;;;;;17.16;100.00;100413.09;5112476;28;20024;-66
2023/07/28 03:25:55;;;;;;;26.75;19.77;;;;;;;17.16;100.00;100404.19;5110398;28;20116;-66
2023/07/28 03:28:20;;;;;;;22.25;19.60;;;;;;;17.21;100.00;100418.03;5111068;28;20051;-66
2023/07/28 03:30:46;;;;;;;23.83;19.52;;;;;;;17.22;100.00;100414.34;5094637;28;20020;-66
2023/07/28 03:33:11;;;;;;;27.67;20.77;;;;;;;17.23;100.00;100427.63;5112222;28;20019;-66
2023/07/28 03:35:36;;;;;;;22.98;20.02;;;;;;;17.27;100.00;100430.03;5094423;28;20037;-66
2023/07/28 03:38:02;;;;;;;25.25;20.95;;;;;;;17.19;100.00;100423.56;5111686;28;20045;-66
2023/07/28 03:40:28;;;;;;;27.83;21.85;;;;;;;17.15;100.00;100414.09;5112122;28;20027;-66
2023/07/28 03:42:57;;;;;;;29.70;21.08;;;;;;;17.17;100.00;100422.84;5112450;28;20027;-66
2023/07/28 03:45:22;;;;;;;27.92;21.45;;;;;;;17.22;100.00;100439.38;5112444;28;20035;-66
2023/07/28 03:47:47;;;;;;;29.88;19.88;;;;;;;17.24;100.00;100444.63;5112466;28;20024;-66
2023/07/28 03:50:13;;;;;;;26.77;20.77;;;;;;;17.22;100.00;100444.75;5112100;28;20489;-66
2023/07/28 03:52:38;;;;;;;24.63;20.60;;;;;;;17.23;100.00;100446.44;5112625;28;20020;-66
2023/07/28 03:55:04;;;;;;;27.00;20.75;;;;;;;17.25;100.00;100454.34;5112056;28;20031;-66
2023/07/28 03:57:29;;;;;;;25.77;20.27;;;;;;;17.23;100.00;100446.44;5112339;28;20352;-66
2023/07/28 03:59:57;;;;;;;25.88;20.77;;;;;;;17.17;100.00;100444.34;5111907;28;20509;-66
2023/07/28 04:02:22;;;;;;;24.13;20.20;;;;;;;17.23;100.00;100445.59;5112150;28;20038;-67
2023/07/28 04:04:54;;;;;;;27.15;20.58;;;;;;;17.20;100.00;100445.88;5112228;28;20020;-65
2023/07/28 04:07:19;;;;;;;28.90;20.13;;;;;;;17.24;100.00;100450.00;5111979;28;20102;-66
2023/07/28 04:09:45;;;;;;;27.77;20.45;;;;;;;17.21;100.00;100448.44;5111158;28;20111;-66
2023/07/28 04:12:10;;;;;;;24.65;19.23;;;;;;;17.21;100.00;100453.81;5112513;28;20378;-66
2023/07/28 04:14:36;;;;;;;26.52;20.10;;;;;;;17.21;100.00;100445.75;5112042;28;20100;-66
2023/07/28 04:17:01;;;;;;;22.88;18.70;;;;;;;17.23;100.00;100440.22;5093618;28;20038;-66
2023/07/28 04:19:29;;;;;;;22.90;19.17;;;;;;;17.24;100.00;100450.00;5111759;28;20024;-66
2023/07/28 04:21:54;;;;;;;22.98;19.02;;;;;;;17.27;100.00;100446.16;5112212;28;20035;-66
2023/07/28 04:24:22;;;;;;;25.40;19.58;;;;;;;17.23;100.00;100441.06;5092207;28;20382;-67
2023/07/28 04:26:50;;;;;;;22.00;18.67;;;;;;;17.22;100.00;100436.69;5111964;28;20024;-67
2023/07/28 04:29:18;;;;;;;24.48;20.10;;;;;;;17.18;100.00;100440.69;5111512;28;20023;-66
2023/07/28 04:31:45;;;;;;;23.90;19.13;;;;;;;17.21;100.00;100451.13;5092822;28;20386;-66
2023/07/28 04:34:11;;;;;;;26.90;19.45;;;;;;;17.21;100.00;100452.97;5111699;28;20107;-66
2023/07/28 04:36:36;;;;;;;26.38;20.65;;;;;;;17.19;100.00;100444.22;5111925;28;20450;-66
2023/07/28 04:39:02;;;;;;;24.63;19.80;;;;;;;17.27;100.00;100449.69;5110659;28;20382;-66
2023/07/28 04:41:27;;;;;;;26.08;19.17;;;;;;;17.25;100.00;100444.44;5093137;28;20115;-66
2023/07/28 04:43:53;;;;;;;23.50;19.73;;;;;;;17.21;100.00;100443.06;5111462;28;20019;-66
2023/07/28 04:46:18;;;;;;;25.00;20.25;;;;;;;17.31;100.00;100447.53;5081831;28;20036;-66
2023/07/28 04:48:44;;;;;;;26.35;20.90;;;;;;;17.29;100.00;100447.69;5104612;28;20542;-66
2023/07/28 04:51:09;;;;;;;23.75;19.60;;;;;;;17.23;100.00;100440.22;5115870;28;20027;-66
2023/07/28 04:53:35;;;;;;;26.02;20.23;;;;;;;17.29;100.00;100449.53;5096846;28;20031;-67
2023/07/28 04:56:00;;;;;;;26.98;20.60;;;;;;;17.19;100.00;100433.47;5115859;28;20045;-67
2023/07/28 04:58:26;;;;;;;25.83;20.70;;;;;;;17.29;100.00;100450.38;5096986;28;20107;-66
2023/07/28 05:00:51;;;;;;;24.88;21.35;;;;;;;17.29;100.00;100447.69;5096691;28;20047;-66
2023/07/28 05:03:16;;;;;;;24.73;19.63;;;;;;;17.27;100.00;100452.38;5115420;28;20044;-66
2023/07/28 05:05:48;;;;;;;27.73;21.05;;;;;;;17.30;100.00;100452.06;5115855;28;20029;-66
2023/07/28 05:08:13;;;;;;;25.02;20.55;;;;;;;17.35;100.00;100459.66;5096461;28;20027;-66
2023/07/28 05:10:40;;;;;;;29.30;19.58;;;;;;;17.25;100.00;100441.75;5115103;28;20435;-66
2023/07/28 05:13:08;;;;;;;24.67;20.48;;;;;;;17.35;100.00;100463.19;5115178;28;20083;-66
2023/07/28 05:15:34;;;;;;;25.27;20.23;;;;;;;17.34;100.00;100461.53;5115370;28;20030;-66
2023/07/28 05:17:59;;;;;;;28.98;20.65;;;;;;;17.30;100.00;100457.44;5115300;28;20020;-66
2023/07/28 05:20:25;;;;;;;24.35;20.02;;;;;;;17.38;100.00;100462.94;5079400;28;20114;-66
2023/07/28 05:22:50;;;;;;;26.15;20.25;;;;;;;17.42;100.00;100467.00;5115016;28;20023;-66
2023/07/28 05:25:15;;;;;;;27.10;21.92;;;;;;;17.34;100.00;100461.53;5114674;28;20028;-66
2023/07/28 05:27:41;;;;;;;24.42;20.83;;;;;;;17.42;100.00;100477.75;5114729;28;20131;-66
2023/07/28 05:30:09;;;;;;;26.00;22.17;;;;;;;17.38;100.00;100479.06;5096199;28;20370;-66
2023/07/28 05:32:34;;;;;;;26.45;22.15;;;;;;;17.43;100.00;100489.34;5114899;28;20015;-66
2023/07/28 05:35:02;;;;;;;26.02;23.38;;;;;;;17.44;100.00;100485.66;5114843;28;20096;-66
2023/07/28 05:37:28;;;;;;;30.83;24.45;;;;;;;17.48;100.00;100487.91;5114673;28;20027;-66
2023/07/28 05:39:53;;;;;;;32.00;26.73;;;;;;;17.48;100.00;100487.06;5114043;28;20352;-66
2023/07/28 05:42:18;;;;;;;28.77;25.50;;;;;;;17.47;100.00;100491.59;5114687;28;20493;-66
2023/07/28 05:44:44;;;;;;;38.33;30.30;;;;;;;17.49;100.00;100491.44;5114876;28;20440;-66
2023/07/28 05:47:09;;;;;;;33.70;30.08;;;;;;;17.53;100.00;100494.66;5096461;28;20110;-66
2023/07/28 05:49:37;;;;;;;37.38;30.83;;;;;;;17.48;100.00;100495.13;5095831;28;20033;-66
2023/07/28 05:52:04;;;;;;;37.13;31.92;;;;;;;17.53;100.00;100500.03;5096295;28;20390;-66
2023/07/28 05:54:30;;;;;;;37.80;33.70;;;;;;;17.52;100.00;100504.56;5114037;28;20070;-67
2023/07/28 05:56:55;;;;;;;42.67;35.95;;;;;;;17.52;100.00;100506.44;5114574;28;20044;-66
2023/07/28 05:59:21;;;;;;;42.38;36.63;;;;;;;17.51;100.00;100508.28;5093666;28;20470;-66
2023/07/28 06:01:46;;;;;;;48.08;35.90;;;;;;;17.53;100.00;100511.66;5114844;28;20016;-66
2023/07/28 06:04:12;;;;;;;51.25;38.80;;;;;;;17.54;100.00;100510.66;5111607;28;20042;-66
2023/07/28 06:06:37;;;;;;;48.42;37.80;;;;;;;17.57;100.00;100501.44;5112679;28;20116;-66
2023/07/28 06:09:03;;;;;;;51.90;39.58;;;;;;;17.56;100.00;100505.13;5112763;28;20132;-66
2023/07/28 06:11:28;;;;;;;53.53;38.30;;;;;;;17.57;100.00;100504.13;5112776;28;20020;-66
2023/07/28 06:13:53;;;;;;;47.58;37.80;;;;;;;17.58;100.00;100505.81;5094275;28;20102;-66
2023/07/28 06:16:19;;;;;;;50.72;37.35;;;;;;;17.61;100.00;100508.22;5112932;28;20023;-66
2023/07/28 06:18:44;;;;;;;46.85;35.40;;;;;;;17.61;100.00;100503.66;5111774;28;20110;-66
2023/07/28 06:21:12;;;;;;;47.80;35.25;;;;;;;17.56;100.00;100503.31;5094353;28;20448;-66
2023/07/28 06:23:37;;;;;;;46.97;34.67;;;;;;;17.63;100.00;100507.06;5112003;28;20031;-67
2023/07/28 06:26:03;;;;;;;44.33;32.65;;;;;;;17.63;100.00;100504.38;5094019;28;20106;-66
2023/07/28 06:28:28;;;;;;;44.25;31.88;;;;;;;17.62;100.00;100508.06;5094074;28;20044;-66
2023/07/28 06:30:58;;;;;;;41.78;30.45;;;;;;;17.62;100.00;100520.69;5107521;28;20060;-66
2023/07/28 06:33:28;;;;;;;39.45;29.33;;;;;;;17.64;100.00;100521.34;5095326;28;20031;-66
2023/07/28 06:35:54;;;;;;;41.97;29.45;;;;;;;17.68;100.00;100525.44;5111377;28;20023;-66
2023/07/28 06:38:19;;;;;;;39.53;26.98;;;;;;;17.73;100.00;100522.28;5113102;28;20079;-66
2023/07/28 06:40:44;;;;;;;36.60;26.15;;;;;;;17.74;100.00;100522.16;5112663;28;20023;-67
2023/07/28 06:43:10;;;;;;;39.67;25.30;;;;;;;17.76;100.00;100525.53;5092677;28;20038;-66
2023/07/28 06:45:36;;;;;;;33.88;23.80;;;;;;;17.77;100.00;100521.84;5113311;28;20135;-67
2023/07/28 06:48:01;;;;;;;36.75;24.83;;;;;;;17.78;100.00;100537.03;5112176;28;20482;-67
2023/07/28 06:50:27;;;;;;;32.08;23.45;;;;;;;17.76;100.00;100532.75;5113367;28;20386;-67
2023/07/28 06:52:52;;;;;;;30.17;23.50;;;;;;;17.77;100.00;100534.47;5108582;28;20038;-67
2023/07/28 06:55:21;;;;;;;29.83;23.60;;;;;;;17.72;100.00;100529.53;5112454;28;20031;-66
2023/07/28 06:57:49;;;;;;;30.45;21.95;;;;;;;17.67;100.00;100518.38;5095301;28;20027;-67
2023/07/28 07:00:15;;;;;;;29.40;21.63;;;;;;;17.74;100.00;100542.84;5113397;28;20535;-67
2023/07/28 07:02:41;;;;;;;29.92;20.73;;;;;;;17.72;100.00;100537.59;5092752;28;20031;-66
2023/07/28 07:05:06;;;;;;;29.27;21.17;;;;;;;17.78;100.00;100538.88;5094860;28;20023;-66
2023/07/28 07:07:32;;;;;;;27.88;20.13;;;;;;;17.79;100.00;100545.94;5113619;28;20035;-66
2023/07/28 07:09:58;;;;;;;32.67;20.92;;;;;;;17.81;100.00;100544.78;5111161;28;20444;-66
2023/07/28 07:12:23;;;;;;;24.80;18.65;;;;;;;17.88;100.00;100548.59;5111892;28;20027;-67
2023/07/28 07:14:49;;;;;;;23.23;19.02;;;;;;;17.82;100.00;100546.47;5092613;28;20381;-66
2023/07/28 07:17:14;;;;;;;24.00;18.75;;;;;;;17.89;100.00;100554.81;5092822;28;20031;-66
2023/07/28 07:19:40;;;;;;;24.70;17.80;;;;;;;17.85;100.00;100543.50;5090965;28;20527;-67
2023/07/28 07:22:05;;;;;;;20.30;16.23;;;;;;;17.89;100.00;100557.50;5102983;28;20355;-66
2023/07/28 07:24:33;;;;;;;22.98;17.15;;;;;;;17.93;100.00;100556.19;5092960;28;20039;-66
2023/07/28 07:26:59;;;;;;;21.80;16.58;;;;;;;17.93;100.00;100557.03;5111542;28;20020;-67
2023/07/28 07:29:24;;;;;;;19.80;16.10;;;;;;;17.98;100.00;100561.97;5107841;28;20035;-66
2023/07/28 07:31:54;;;;;;;21.55;15.40;;;;;;;18.01;100.00;100560.81;5110954;28;20032;-67
2023/07/28 07:34:20;;;;;;;21.20;15.50;;;;;;;18.05;100.00;100564.88;5109849;28;20118;-66
2023/07/28 07:36:45;;;;;;;20.52;14.52;;;;;;;18.03;100.00;100569.56;5094487;28;20052;-67
2023/07/28 07:39:11;;;;;;;15.00;12.95;;;;;;;18.08;100.00;100562.72;5111878;28;20024;-66
2023/07/28 07:41:39;;;;;;;17.70;13.23;;;;;;;18.12;100.00;100569.53;5093904;28;20967;-67
2023/07/28 07:44:04;;;;;;;13.40;12.00;;;;;;;18.12;100.00;100571.38;5110821;28;20035;-67
2023/07/28 07:46:30;;;;;;;18.48;12.77;;;;;;;18.15;100.00;100566.53;5108350;28;20035;-67
2023/07/28 07:48:55;;;;;;;15.32;13.13;;;;;;;18.25;100.00;100565.59;5092632;28;20471;-66
2023/07/28 07:51:20;;;;;;;13.80;12.27;;;;;;;18.32;100.00;100570.22;5107884;28;20492;-67
2023/07/28 07:53:46;;;;;;;12.77;11.48;;;;;;;18.29;100.00;100564.28;5111537;28;20080;-66
2023/07/28 07:56:16;;;;;;;11.80;10.60;;;;;;;18.30;100.00;100563.31;5094091;28;20023;-67
2023/07/28 07:58:42;;;;;;;12.30;10.60;;;;;;;18.32;100.00;100572.03;5092082;28;20024;-67
2023/07/28 08:01:10;;;;;;;12.45;11.23;;;;;;;18.37;100.00;100575.97;5112085;28;20047;-67
2023/07/28 08:03:36;;;;;;;12.38;10.27;;;;;;;18.31;100.00;100567.66;5111868;28;20035;-67
2023/07/28 08:06:02;;;;;;;13.95;10.55;;;;;;;18.39;100.00;100573.97;5112158;28;20023;-66
2023/07/28 08:08:27;;;;;;;11.65;10.48;;;;;;;18.40;100.00;100574.81;5111597;28;20027;-66
2023/07/28 08:10:53;;;;;;;11.23;10.00;;;;;;;18.44;100.00;100581.59;5112316;28;20023;-67
2023/07/28 08:13:18;;;;;;;11.02;9.93;;;;;;;18.41;100.00;100589.97;5093538;28;20477;-67
2023/07/28 08:15:47;;;;;;;11.32;10.18;;;;;;;18.30;100.00;100577.59;5111686;28;20370;-67
2023/07/28 08:18:13;;;;;;;11.40;9.60;;;;;;;18.34;100.00;100600.53;5093564;28;20049;-70
2023/07/28 08:20:38;;;;;;;11.73;10.35;;;;;;;18.33;100.00;100593.44;5093335;28;20026;-70
2023/07/28 08:23:04;;;;;;;9.98;9.07;;;;;;;18.36;100.00;100582.38;5115560;28;20386;-70
2023/07/28 08:25:29;;;;;;;9.95;8.55;;;;;;;18.35;100.00;100588.75;5118685;28;20381;-70
2023/07/28 08:27:54;;;;;;;9.15;8.25;;;;;;;18.33;100.00;100582.69;5118556;28;20044;-70
2023/07/28 08:30:20;;;;;;;9.73;8.77;;;;;;;18.44;100.00;100596.91;5118899;28;20432;-69
2023/07/28 08:32:48;;;;;;;9.00;8.23;;;;;;;18.48;100.00;100596.44;5118865;28;20054;-70
2023/07/28 08:35:14;;;;;;;9.53;8.63;;;;;;;18.57;100.00;100590.13;5118523;28;20024;-70
2023/07/28 08:37:39;;;;;;;8.38;7.68;;;;;;;18.61;100.00;100582.59;5118631;28;20378;-70
2023/07/28 08:40:05;;;;;;;8.73;7.45;;;;;;;18.72;100.00;100587.72;5117896;28;20111;-73
2023/07/28 08:42:36;;;;;;;7.65;6.95;;;;;;;18.94;100.00;100597.22;5100494;28;20088;-73
2023/07/28 08:45:04;;;;;;;7.22;6.55;;;;;;;18.98;100.00;100606.66;5118545;28;20030;-69
2023/07/28 08:47:30;;;;;;;7.88;6.82;;;;;;;19.03;100.00;100592.69;5118176;28;20023;-70
2023/07/28 08:49:57;;;;;;;7.53;6.57;;;;;;;19.22;100.00;100602.44;5118344;28;20080;-70
2023/07/28 08:52:23;;;;;;;7.65;6.97;;;;;;;19.26;100.00;100599.25;5117714;28;20405;-70
2023/07/28 08:54:49;;;;;;;7.00;6.40;;;;;;;19.37;100.00;100605.41;5116717;28;20475;-70
2023/07/28 08:57:14;;;;;;;6.88;6.32;;;;;;;19.52;100.00;100601.94;5099238;28;20087;-70
2023/07/28 08:59:47;;;;;;;7.60;6.90;;;;;;;19.59;100.00;100599.44;5116701;28;20024;-70
2023/07/28 09:02:15;;;;;;;7.40;6.57;;;;;;;19.80;100.00;100609.03;5098928;28;20053;-70
2023/07/28 09:04:41;;;;;;;6.30;5.80;;;;;;;19.89;100.00;100603.47;5098594;28;20084;-70
2023/07/28 09:07:06;;;;;;;7.22;6.50;;;;;;;20.07;100.00;100603.38;5098664;28;20436;-70
2023/07/28 09:09:33;;;;;;;7.43;6.82;;;;;;;20.10;100.00;100594.94;5099336;28;20028;-70
2023/07/28 09:12:02;;;;;;;7.80;7.30;;;;;;;20.31;100.00;100609.84;5118423;28;20431;-70
2023/07/28 09:14:27;;;;;;;10.25;7.63;;;;;;;20.56;100.00;100614.31;5118092;28;20405;-70
2023/07/28 09:16:53;;;;;;;7.90;7.30;;;;;;;20.65;100.00;100609.75;5099685;28;20020;-70
2023/07/28 09:19:20;;;;;;;8.52;7.72;;;;;;;20.65;100.00;100609.75;5099866;28;20035;-70
2023/07/28 09:22:00;;;;;;;8.98;8.00;;;;;;;20.63;100.00;100607.19;5118271;28;20039;-70
2023/07/28 09:24:34;;;;;;;8.15;7.45;;;;;;;20.58;100.00;100603.31;5117395;28;20480;-70
2023/07/28 09:27:00;;;;;;;8.40;7.70;;;;;;;20.57;100.00;100617.84;5099203;28;20039;-70
2023/07/28 09:29:29;;;;;;;8.88;8.10;;;;;;;20.41;100.00;100615.91;5095946;28;20040;-70
2023/07/28 09:32:05;;;;;;;9.15;8.15;;;;;;;20.43;100.00;100624.72;5098054;28;20099;-70
2023/07/28 09:34:32;;;;;;;8.25;7.55;;;;;;;20.32;100.00;100612.34;5089205;28;20387;-70
2023/07/28 09:36:59;;;;;;;9.27;8.57;;;;;;;20.40;100.00;100615.06;5074251;28;20035;-70
2023/07/28 09:39:25;;;;;;;8.35;7.65;;;;;;;20.44;100.00;100618.28;5072342;28;20025;-70
2023/07/28 09:41:51;;;;;;;8.88;8.27;;;;;;;20.55;100.00;100623.41;5074157;28;20028;-70
2023/07/28 09:44:17;;;;;;;10.05;8.43;;;;;;;20.62;100.00;100627.13;5072670;28;20025;-70
2023/07/28 09:46:55;;;;;;;8.27;7.57;;;;;;;20.74;100.00;100621.41;5073808;28;20051;-70
2023/07/28 09:49:27;;;;;;;7.70;6.03;;;;;;;20.93;100.00;100626.47;5072538;28;20025;-70
2023/07/28 09:51:57;;;;;;;6.65;6.05;;;;;;;21.17;100.00;100620.19;5073961;28;20028;-70
2023/07/28 09:54:29;;;;;;;5.22;4.70;;;;;;;21.43;100.00;100617.28;5078384;28;20048;-70
2023/07/28 09:56:59;;;;;;;4.50;4.20;;;;;;;21.51;100.00;100621.84;5075967;28;20036;-70
2023/07/28 09:59:39;;;;;;;4.53;3.80;;;;;;;21.42;96.95;100618.31;5072174;28;20024;-70
2023/07/28 10:02:05;;;;;;;4.53;4.22;;;;;;;21.29;93.91;100628.78;5073950;28;20099;-70
2023/07/28 10:04:32;;;;;;;5.05;4.70;;;;;;;21.20;99.14;100636.06;5073515;28;20155;-70
2023/07/28 10:06:57;;;;;;;4.85;4.45;;;;;;;21.08;99.01;100627.44;5073463;28;20139;-70
2023/07/28 10:09:28;;;;;;;4.80;4.40;;;;;;;20.98;100.00;100618.69;5073135;28;20387;-70
2023/07/28 10:11:55;;;;;;;5.40;4.90;;;;;;;21.07;98.04;100630.34;5073968;28;20028;-70
2023/07/28 10:14:39;;;;;;;5.30;4.75;;;;;;;21.06;100.00;100639.44;5072871;28;20021;-70
2023/07/28 10:17:05;;;;;;;5.60;5.20;;;;;;;20.94;97.47;100636.28;5073762;28;20123;-70
2023/07/28 10:19:35;;;;;;;6.30;5.80;;;;;;;20.97;100.00;100635.06;5087742;28;20102;-70
2023/07/28 10:22:08;;;;;;;6.15;5.68;;;;;;;21.09;100.00;100636.44;5093923;28;20436;-70
2023/07/28 10:24:58;;;;;;;5.93;5.53;;;;;;;21.26;98.74;100638.06;5093540;28;20029;-70
2023/07/28 10:27:38;;;;;;;5.90;5.38;;;;;;;21.38;98.41;100635.06;5056481;28;20442;-70
2023/07/28 10:30:09;;;;;;;6.97;5.20;;;;;;;21.48;95.46;100639.25;5093474;28;20142;-70
2023/07/28 10:32:45;;;;;;;5.00;4.60;;;;;;;21.72;99.12;100632.94;5113051;28;20031;-70
2023/07/28 10:35:14;;;;;;;5.75;3.58;;;;;;;21.84;94.58;100632.56;5113074;28;20024;-70
2023/07/28 10:37:47;;;;;;;4.30;3.65;;;;;;;21.81;88.71;100639.16;5095272;28;20023;-70
2023/07/28 10:40:30;;;;;;;4.10;3.30;;;;;;;21.82;91.28;100635.41;5113334;28;20023;-70
2023/07/28 10:42:57;;;;;;;3.75;3.45;;;;;;;21.74;87.55;100630.91;5095071;28;20019;-70
2023/07/28 10:45:25;;;;;;;4.22;3.83;;;;;;;21.84;88.08;100632.56;5112040;28;20023;-70
2023/07/28 10:47:52;;;;;;;4.47;3.88;;;;;;;21.99;90.64;100634.34;5113344;28;20431;-70
2023/07/28 10:50:19;;;;;;;4.40;3.10;;;;;;;22.13;84.55;100632.75;5095446;28;20034;-70
2023/07/28 10:52:46;;;;;;;3.80;3.10;;;;;;;22.25;88.78;100627.81;5113576;28;20541;-70
2023/07/28 10:55:18;;;;;;;3.50;3.20;;;;;;;22.35;87.17;100627.56;5077956;28;20023;-70
2023/07/28 10:57:50;;;;;;;3.25;2.95;;;;;;;22.39;85.30;100629.75;5094835;28;20035;-70
2023/07/28 11:00:18;;;;;;;2.63;2.42;;;;;;;22.65;85.05;100626.69;5095375;28;20019;-70
2023/07/28 11:02:45;;;;;;;2.55;2.35;;;;;;;23.18;84.99;100624.06;5113281;28;20084;-69
2023/07/28 11:05:12;;;;;;;3.15;2.95;;;;;;;23.32;82.67;100625.09;5113178;28;20031;-70